createdAt,value
2017-08-31T00:00:58.388Z,96.40
2017-08-31T00:03:25.901Z,96.30
2017-08-31T00:05:53.437Z,96.40
2017-08-31T00:08:20.954Z,96.60
2017-08-31T00:10:48.499Z,96.80
2017-08-31T00:13:16.024Z,97.20
2017-08-31T00:15:43.576Z,97.20
2017-08-31T00:18:11.094Z,97.80
2017-08-31T00:20:38.634Z,97.50
2017-08-31T00:23:06.153Z,97.30
2017-08-31T00:25:33.707Z,97.20
2017-08-31T00:28:01.232Z,97.40
2017-08-31T00:30:28.760Z,97.50
2017-08-31T00:32:56.295Z,97.50
2017-08-31T00:35:23.812Z,97.50
2017-08-31T00:37:51.354Z,98.00
2017-08-31T00:40:18.874Z,97.70
2017-08-31T00:42:46.410Z,98.00
2017-08-31T00:45:13.926Z,97.80
2017-08-31T00:47:41.463Z,97.50
2017-08-31T00:50:09.677Z,97.40
2017-08-31T00:52:37.243Z,97.80
2017-08-31T00:55:04.760Z,97.50
2017-08-31T00:57:32.282Z,97.50
2017-08-31T00:59:59.818Z,97.50
2017-08-31T01:02:27.338Z,97.50
2017-08-31T01:04:54.874Z,97.50
2017-08-31T01:07:22.403Z,97.60
2017-08-31T01:09:49.948Z,97.60
2017-08-31T01:12:17.475Z,97.60
2017-08-31T01:14:45.020Z,97.60
2017-08-31T01:17:12.533Z,97.70
2017-08-31T01:19:40.082Z,97.60
2017-08-31T01:22:07.603Z,97.70
2017-08-31T01:24:35.119Z,97.80
2017-08-31T01:27:02.653Z,98.00
2017-08-31T01:29:30.171Z,98.50
2017-08-31T01:31:57.709Z,98.20
2017-08-31T01:34:25.227Z,98.30
2017-08-31T01:36:52.762Z,98.50
2017-08-31T01:39:20.290Z,98.50
2017-08-31T01:41:47.834Z,98.30
2017-08-31T01:44:15.355Z,98.30
2017-08-31T01:46:42.894Z,98.40
2017-08-31T01:49:10.418Z,98.40
2017-08-31T01:51:37.959Z,98.80
2017-08-31T01:54:05.490Z,98.70
2017-08-31T01:56:33.030Z,98.60
2017-08-31T01:59:00.547Z,98.50
2017-08-31T02:01:28.073Z,98.00
2017-08-31T02:03:55.610Z,97.80
2017-08-31T02:06:23.179Z,98.00
2017-08-31T02:08:50.719Z,98.40
2017-08-31T02:11:18.233Z,98.60
2017-08-31T02:13:45.776Z,98.70
2017-08-31T02:16:13.293Z,98.80
2017-08-31T02:18:40.831Z,98.70
2017-08-31T02:21:08.347Z,98.10
2017-08-31T02:23:35.887Z,98.10
2017-08-31T02:26:03.409Z,98.50
2017-08-31T02:28:30.930Z,99.10
2017-08-31T02:30:58.466Z,99.00
2017-08-31T02:33:25.992Z,98.90
2017-08-31T02:35:53.528Z,98.70
2017-08-31T02:38:21.056Z,98.90
2017-08-31T02:40:48.616Z,99.00
2017-08-31T02:43:16.144Z,99.30
2017-08-31T02:45:43.687Z,99.50
2017-08-31T02:48:11.202Z,99.50
2017-08-31T02:50:38.743Z,99.90
2017-08-31T02:53:06.261Z,99.60
2017-08-31T02:55:33.789Z,99.40
2017-08-31T02:58:01.318Z,99.50
2017-08-31T03:00:28.834Z,99.30
2017-08-31T03:02:56.374Z,99.20
2017-08-31T03:05:23.894Z,99.30
2017-08-31T03:07:51.433Z,98.60
2017-08-31T03:10:18.959Z,98.80
2017-08-31T03:12:46.506Z,99.20
2017-08-31T03:15:14.037Z,99.10
2017-08-31T03:17:41.594Z,99.30
2017-08-31T03:20:09.114Z,99.10
2017-08-31T03:22:36.634Z,98.90
2017-08-31T03:25:04.179Z,99.20
2017-08-31T03:27:31.698Z,99.40
2017-08-31T03:29:59.243Z,99.50
2017-08-31T03:32:26.764Z,99.40
2017-08-31T03:34:54.308Z,99.40
2017-08-31T03:37:21.826Z,99.30
2017-08-31T03:39:49.371Z,99.20
2017-08-31T03:42:16.894Z,99.00
2017-08-31T03:44:44.433Z,99.20
2017-08-31T03:47:11.952Z,99.80
2017-08-31T03:49:39.476Z,99.90
2017-08-31T03:52:07.019Z,99.90
2017-08-31T03:54:34.537Z,99.90
2017-08-31T03:57:02.075Z,99.50
2017-08-31T03:59:30.395Z,99.60
2017-08-31T04:01:57.938Z,99.60
2017-08-31T04:04:25.463Z,99.80
2017-08-31T04:06:53.012Z,99.90
2017-08-31T04:09:20.540Z,99.90
2017-08-31T04:11:48.090Z,99.90
2017-08-31T04:14:15.615Z,99.90
2017-08-31T04:16:43.140Z,99.90
2017-08-31T04:19:10.683Z,99.30
2017-08-31T04:21:38.206Z,99.10
2017-08-31T04:24:05.747Z,99.50
2017-08-31T04:26:33.272Z,99.80
2017-08-31T04:29:00.817Z,99.90
2017-08-31T04:31:28.344Z,99.90
2017-08-31T04:33:55.879Z,99.90
2017-08-31T04:36:23.400Z,99.90
2017-08-31T04:38:50.946Z,99.20
2017-08-31T04:41:19.234Z,99.80
2017-08-31T04:43:46.757Z,99.80
2017-08-31T04:46:14.294Z,99.90
2017-08-31T04:48:41.815Z,99.90
2017-08-31T04:51:09.362Z,99.90
2017-08-31T04:53:36.891Z,99.80
2017-08-31T04:56:04.438Z,99.60
2017-08-31T04:58:31.970Z,99.00
2017-08-31T05:00:59.520Z,98.10
2017-08-31T05:03:27.048Z,98.20
2017-08-31T05:05:54.594Z,98.60
2017-08-31T05:08:22.115Z,99.00
2017-08-31T05:10:49.663Z,99.50
2017-08-31T05:13:17.181Z,99.80
2017-08-31T05:15:44.704Z,99.60
2017-08-31T05:18:12.242Z,99.60
2017-08-31T05:20:39.762Z,99.80
2017-08-31T05:23:07.308Z,99.90
2017-08-31T05:25:34.822Z,99.90
2017-08-31T05:28:02.370Z,99.60
2017-08-31T05:30:29.891Z,99.70
2017-08-31T05:32:57.435Z,99.50
2017-08-31T05:35:24.964Z,98.90
2017-08-31T05:37:52.507Z,97.00
2017-08-31T05:40:20.027Z,96.00
2017-08-31T05:42:47.570Z,95.70
2017-08-31T05:45:15.086Z,96.00
2017-08-31T05:47:42.622Z,96.80
2017-08-31T05:50:10.170Z,97.20
2017-08-31T05:52:37.696Z,97.20
2017-08-31T05:55:05.270Z,97.70
2017-08-31T05:57:32.807Z,97.70
2017-08-31T06:00:00.879Z,98.30
2017-08-31T06:02:28.398Z,98.70
2017-08-31T06:04:55.942Z,99.20
2017-08-31T06:07:23.471Z,99.00
2017-08-31T06:09:51.015Z,99.40
2017-08-31T06:12:18.539Z,98.90
2017-08-31T06:14:46.096Z,98.00
2017-08-31T06:17:13.619Z,97.80
2017-08-31T06:19:41.138Z,98.00
2017-08-31T06:22:08.680Z,98.30
2017-08-31T06:24:36.202Z,98.20
2017-08-31T06:27:03.783Z,98.30
2017-08-31T06:29:32.077Z,98.10
2017-08-31T06:31:59.626Z,98.10
2017-08-31T06:34:27.146Z,98.10
2017-08-31T06:36:54.696Z,98.40
2017-08-31T06:39:22.214Z,98.90
2017-08-31T06:41:49.753Z,99.40
2017-08-31T06:44:17.274Z,99.90
2017-08-31T06:46:44.795Z,99.90
2017-08-31T06:49:12.340Z,99.90
2017-08-31T06:51:39.860Z,99.60
2017-08-31T06:54:07.414Z,99.60
2017-08-31T06:56:34.936Z,99.90
2017-08-31T06:59:02.481Z,99.20
2017-08-31T07:01:30.008Z,98.40
2017-08-31T07:03:57.564Z,99.10
2017-08-31T07:06:25.094Z,99.90
2017-08-31T07:08:52.619Z,99.50
2017-08-31T07:11:20.176Z,99.90
2017-08-31T07:13:47.694Z,99.90
2017-08-31T07:16:15.236Z,99.90
2017-08-31T07:18:42.759Z,99.90
2017-08-31T07:21:10.302Z,99.90
2017-08-31T07:23:37.823Z,99.90
2017-08-31T07:26:05.379Z,99.90
2017-08-31T07:28:32.943Z,99.90
2017-08-31T07:31:00.505Z,99.90
2017-08-31T07:33:28.035Z,99.90
2017-08-31T07:35:55.559Z,99.90
2017-08-31T07:38:23.108Z,99.90
2017-08-31T07:40:50.632Z,99.90
2017-08-31T07:43:18.178Z,99.90
2017-08-31T07:45:45.708Z,99.90
2017-08-31T07:48:13.255Z,99.90
2017-08-31T07:50:40.780Z,99.90
2017-08-31T07:53:08.332Z,99.90
2017-08-31T07:55:35.851Z,99.90
2017-08-31T07:58:03.387Z,99.90
2017-08-31T08:00:30.915Z,99.90
2017-08-31T08:02:58.468Z,99.90
2017-08-31T08:05:25.996Z,99.90
2017-08-31T08:07:53.521Z,99.90
2017-08-31T08:10:21.066Z,99.90
2017-08-31T08:12:48.588Z,99.90
2017-08-31T08:15:16.125Z,99.90
2017-08-31T08:17:43.647Z,99.90
2017-08-31T08:20:11.191Z,99.90
2017-08-31T08:22:38.717Z,99.90
2017-08-31T08:25:06.266Z,99.90
2017-08-31T08:27:33.791Z,99.90
2017-08-31T08:30:01.564Z,99.90
2017-08-31T08:32:29.083Z,99.90
2017-08-31T08:34:56.629Z,99.90
2017-08-31T08:37:24.146Z,99.90
2017-08-31T08:39:51.670Z,99.90
2017-08-31T08:42:19.216Z,99.90
2017-08-31T08:44:46.738Z,99.90
2017-08-31T08:47:14.282Z,99.90
2017-08-31T08:49:41.808Z,99.90
2017-08-31T08:52:09.346Z,99.90
2017-08-31T08:54:36.872Z,99.90
2017-08-31T08:57:04.419Z,99.70
2017-08-31T08:59:32.704Z,99.40
2017-08-31T09:02:00.262Z,99.40
2017-08-31T09:04:27.783Z,98.10
2017-08-31T09:06:55.330Z,98.30
2017-08-31T09:09:22.847Z,97.10
2017-08-31T09:11:50.395Z,97.00
2017-08-31T09:14:17.923Z,97.40
2017-08-31T09:16:45.456Z,97.60
2017-08-31T09:19:12.994Z,97.80
2017-08-31T09:21:40.520Z,98.10
2017-08-31T09:24:08.067Z,98.70
2017-08-31T09:26:35.583Z,99.80
2017-08-31T09:29:03.144Z,99.90
2017-08-31T09:31:30.663Z,99.90
2017-08-31T09:33:58.199Z,99.90
2017-08-31T09:36:25.728Z,99.90
2017-08-31T09:38:53.274Z,99.90
2017-08-31T09:41:20.804Z,99.90
2017-08-31T09:43:48.331Z,99.90
2017-08-31T09:46:15.873Z,99.90
2017-08-31T09:48:43.391Z,99.40
2017-08-31T09:51:11.703Z,98.20
2017-08-31T09:53:39.227Z,98.20
2017-08-31T09:56:06.778Z,98.30
2017-08-31T09:58:34.293Z,98.80
2017-08-31T10:01:01.842Z,98.50
2017-08-31T10:03:29.375Z,97.60
2017-08-31T10:05:56.931Z,98.40
2017-08-31T10:08:24.455Z,96.20
2017-08-31T10:10:51.971Z,96.30
2017-08-31T10:13:20.290Z,95.50
2017-08-31T10:15:47.811Z,95.40
2017-08-31T10:18:16.129Z,94.00
2017-08-31T10:20:43.657Z,94.30
2017-08-31T10:23:11.202Z,93.50
2017-08-31T10:25:38.735Z,94.20
2017-08-31T10:28:06.279Z,93.60
2017-08-31T10:30:33.807Z,91.80
2017-08-31T10:33:02.204Z,92.30
2017-08-31T10:35:29.731Z,92.60
2017-08-31T10:37:57.274Z,93.30
2017-08-31T10:40:24.793Z,94.50
2017-08-31T10:42:52.315Z,95.00
2017-08-31T10:45:19.862Z,92.40
2017-08-31T10:47:47.382Z,93.50
2017-08-31T10:50:14.923Z,93.30
2017-08-31T10:52:42.444Z,92.70
2017-08-31T10:55:09.988Z,92.30
2017-08-31T10:57:38.683Z,90.50
2017-08-31T11:00:06.226Z,90.10
2017-08-31T11:02:33.757Z,90.60
2017-08-31T11:05:01.304Z,91.20
2017-08-31T11:07:28.833Z,91.20
2017-08-31T11:09:56.375Z,90.90
2017-08-31T11:12:23.953Z,89.50
2017-08-31T11:14:51.484Z,87.30
2017-08-31T11:17:19.031Z,84.30
2017-08-31T11:19:46.548Z,85.50
2017-08-31T11:22:14.080Z,87.00
2017-08-31T11:24:41.611Z,86.00
2017-08-31T11:27:09.232Z,85.20
2017-08-31T11:29:36.771Z,85.40
2017-08-31T11:32:04.370Z,89.50
2017-08-31T11:34:31.880Z,86.40
2017-08-31T11:36:59.516Z,86.80
2017-08-31T11:39:26.934Z,85.80
2017-08-31T11:41:54.447Z,88.30
2017-08-31T11:44:22.760Z,88.90
2017-08-31T11:46:50.284Z,88.90
2017-08-31T11:49:17.823Z,89.00
2017-08-31T11:51:45.352Z,89.00
2017-08-31T11:54:12.890Z,90.30
2017-08-31T11:56:40.410Z,89.80
2017-08-31T11:59:07.950Z,89.20
2017-08-31T12:01:35.468Z,90.00
2017-08-31T12:04:03.010Z,88.80
2017-08-31T12:06:30.540Z,89.20
2017-08-31T12:08:58.082Z,88.70
2017-08-31T12:11:25.612Z,87.30
2017-08-31T12:13:53.137Z,87.80
2017-08-31T12:16:20.685Z,88.00
2017-08-31T12:18:48.202Z,87.60
2017-08-31T12:21:15.739Z,87.80
2017-08-31T12:23:43.262Z,86.90
2017-08-31T12:26:10.810Z,88.10
2017-08-31T12:28:38.338Z,88.40
2017-08-31T12:31:05.884Z,88.40
2017-08-31T12:33:33.402Z,86.50
2017-08-31T12:36:00.950Z,87.10
2017-08-31T12:38:28.464Z,87.30
2017-08-31T12:40:56.012Z,86.60
2017-08-31T12:43:23.534Z,87.60
2017-08-31T12:45:51.079Z,88.40
2017-08-31T12:48:18.598Z,87.70
2017-08-31T12:50:46.139Z,86.80
2017-08-31T12:53:13.654Z,85.30
2017-08-31T12:55:41.201Z,85.70
2017-08-31T12:58:08.726Z,83.70
2017-08-31T13:00:36.288Z,85.20
2017-08-31T13:03:03.805Z,80.60
2017-08-31T13:05:31.323Z,78.90
2017-08-31T13:07:58.863Z,77.30
2017-08-31T13:10:26.383Z,79.80
2017-08-31T13:12:53.927Z,77.60
2017-08-31T13:15:21.460Z,78.80
2017-08-31T13:17:49.007Z,75.60
2017-08-31T13:20:16.531Z,74.70
2017-08-31T13:22:44.080Z,76.90
2017-08-31T13:25:11.594Z,75.70
2017-08-31T13:27:39.142Z,77.90
2017-08-31T13:30:06.675Z,74.30
2017-08-31T13:32:34.220Z,73.80
2017-08-31T13:35:01.742Z,72.00
2017-08-31T13:37:29.287Z,71.60
2017-08-31T13:39:56.812Z,73.40
2017-08-31T13:42:24.350Z,75.10
2017-08-31T13:44:51.872Z,76.80
2017-08-31T13:47:19.420Z,76.70
2017-08-31T13:49:46.948Z,75.70
2017-08-31T13:52:14.493Z,75.20
2017-08-31T13:54:42.016Z,75.00
2017-08-31T13:57:09.554Z,75.90
2017-08-31T13:59:37.084Z,76.80
2017-08-31T14:02:04.914Z,77.50
2017-08-31T14:04:32.438Z,76.50
2017-08-31T14:06:59.962Z,76.20
2017-08-31T14:09:27.505Z,77.10
2017-08-31T14:11:55.027Z,75.70
2017-08-31T14:14:22.566Z,76.40
2017-08-31T14:16:50.094Z,79.70
2017-08-31T14:19:17.650Z,77.00
2017-08-31T14:21:45.170Z,78.20
2017-08-31T14:24:12.713Z,78.60
2017-08-31T14:26:40.239Z,77.30
2017-08-31T14:29:09.084Z,76.90
2017-08-31T14:31:36.608Z,78.10
2017-08-31T14:34:04.127Z,77.80
2017-08-31T14:36:31.666Z,77.30
2017-08-31T14:38:59.182Z,78.00
2017-08-31T14:41:26.729Z,77.10
2017-08-31T14:43:54.268Z,77.60
2017-08-31T14:46:22.576Z,78.90
2017-08-31T14:48:50.095Z,78.80
2017-08-31T14:51:17.994Z,79.70
2017-08-31T14:53:45.522Z,80.70
2017-08-31T14:56:13.074Z,80.00
2017-08-31T14:58:40.594Z,80.50
2017-08-31T15:01:08.134Z,81.30
2017-08-31T15:03:35.662Z,80.90
2017-08-31T15:06:03.183Z,81.60
2017-08-31T15:08:30.728Z,82.00
2017-08-31T15:10:58.256Z,82.80
2017-08-31T15:13:25.809Z,83.40
2017-08-31T15:15:53.335Z,82.80
2017-08-31T15:18:20.892Z,83.70
2017-08-31T15:20:48.418Z,84.10
2017-08-31T15:23:15.956Z,84.90
2017-08-31T15:25:43.477Z,83.90
2017-08-31T15:28:11.023Z,83.90
2017-08-31T15:30:38.551Z,83.10
2017-08-31T15:33:06.107Z,84.00
2017-08-31T15:35:33.642Z,83.00
2017-08-31T15:38:01.154Z,83.30
2017-08-31T15:40:28.699Z,83.70
2017-08-31T15:42:56.219Z,83.30
2017-08-31T15:45:23.768Z,82.30
2017-08-31T15:47:51.310Z,83.30
2017-08-31T15:50:18.854Z,83.10
2017-08-31T15:52:46.378Z,83.50
2017-08-31T15:55:14.693Z,83.90
2017-08-31T15:57:42.223Z,83.80
2017-08-31T16:00:09.776Z,84.60
2017-08-31T16:02:37.290Z,84.00
2017-08-31T16:05:04.829Z,84.50
2017-08-31T16:07:32.356Z,84.90
2017-08-31T16:09:59.930Z,85.40
2017-08-31T16:12:27.454Z,85.60
2017-08-31T16:14:54.974Z,85.80
2017-08-31T16:17:22.515Z,84.80
2017-08-31T16:19:50.037Z,84.70
2017-08-31T16:22:17.582Z,84.60
2017-08-31T16:24:45.107Z,85.90
2017-08-31T16:27:12.648Z,84.50
2017-08-31T16:29:40.174Z,85.00
2017-08-31T16:32:07.720Z,85.00
2017-08-31T16:34:35.243Z,85.50
2017-08-31T16:37:02.775Z,85.60
2017-08-31T16:39:30.299Z,85.40
2017-08-31T16:41:57.834Z,85.80
2017-08-31T16:44:25.360Z,86.10
2017-08-31T16:46:52.917Z,86.20
2017-08-31T16:49:20.439Z,86.60
2017-08-31T16:51:47.961Z,85.70
2017-08-31T16:54:15.504Z,86.00
2017-08-31T16:56:43.031Z,85.60
2017-08-31T16:59:10.575Z,85.50
2017-08-31T17:01:38.297Z,85.20
2017-08-31T17:04:05.836Z,85.40
2017-08-31T17:06:33.360Z,85.30
2017-08-31T17:09:00.920Z,85.20
2017-08-31T17:11:28.443Z,85.70
2017-08-31T17:13:55.987Z,84.60
2017-08-31T17:16:23.511Z,84.50
2017-08-31T17:18:51.032Z,84.90
2017-08-31T17:21:18.580Z,84.60
2017-08-31T17:23:46.103Z,85.10
2017-08-31T17:26:13.651Z,85.10
2017-08-31T17:28:41.167Z,84.70
2017-08-31T17:31:08.707Z,85.20
2017-08-31T17:33:36.256Z,85.30
2017-08-31T17:36:03.803Z,85.40
2017-08-31T17:38:31.328Z,85.20
2017-08-31T17:40:58.868Z,85.30
2017-08-31T17:43:26.387Z,85.60
2017-08-31T17:45:55.576Z,85.40
2017-08-31T17:48:23.098Z,86.20
2017-08-31T17:50:50.622Z,86.10
2017-08-31T17:53:18.169Z,86.30
2017-08-31T17:55:45.695Z,86.80
2017-08-31T17:58:13.234Z,86.60
2017-08-31T18:00:40.760Z,87.10
2017-08-31T18:03:08.309Z,87.20
2017-08-31T18:05:35.839Z,86.80
2017-08-31T18:08:03.390Z,87.00
2017-08-31T18:10:30.912Z,87.70
2017-08-31T18:12:58.464Z,87.60
2017-08-31T18:15:25.988Z,88.40
2017-08-31T18:17:54.276Z,90.00
2017-08-31T18:20:21.815Z,89.80
2017-08-31T18:22:49.331Z,90.10
2017-08-31T18:25:16.874Z,90.70
2017-08-31T18:27:44.407Z,90.90
2017-08-31T18:30:11.943Z,91.00
2017-08-31T18:32:39.461Z,91.30
2017-08-31T18:35:07.010Z,91.20
2017-08-31T18:37:34.536Z,91.40
2017-08-31T18:40:02.054Z,91.50
2017-08-31T18:42:29.597Z,91.70
2017-08-31T18:44:57.886Z,91.60
2017-08-31T18:47:25.432Z,91.60
2017-08-31T18:49:52.965Z,91.60
2017-08-31T18:52:20.512Z,91.70
2017-08-31T18:54:48.034Z,91.60
2017-08-31T18:57:15.584Z,91.60
2017-08-31T18:59:43.122Z,91.60
2017-08-31T19:02:10.663Z,91.70
2017-08-31T19:04:38.188Z,91.90
2017-08-31T19:07:05.738Z,92.30
2017-08-31T19:09:33.261Z,91.90
2017-08-31T19:12:00.788Z,91.90
2017-08-31T19:14:28.342Z,92.00
2017-08-31T19:16:55.858Z,92.20
2017-08-31T19:19:23.394Z,92.50
2017-08-31T19:21:50.915Z,92.60
2017-08-31T19:24:18.455Z,92.80
2017-08-31T19:26:45.974Z,92.90
2017-08-31T19:29:13.514Z,93.10
2017-08-31T19:31:41.034Z,93.40
2017-08-31T19:34:08.583Z,93.40
2017-08-31T19:36:36.109Z,93.60
2017-08-31T19:39:04.398Z,93.90
2017-08-31T19:41:31.942Z,93.90
2017-08-31T19:43:59.466Z,93.90
2017-08-31T19:46:27.007Z,93.90
2017-08-31T19:48:54.538Z,94.40
2017-08-31T19:51:22.095Z,94.60
2017-08-31T19:53:49.614Z,94.40
2017-08-31T19:56:17.154Z,94.40
2017-08-31T19:58:44.672Z,94.50
2017-08-31T20:01:12.211Z,94.60
2017-08-31T20:03:39.730Z,94.60
2017-08-31T20:06:07.276Z,94.90
2017-08-31T20:08:34.795Z,94.70
2017-08-31T20:11:03.114Z,95.30
2017-08-31T20:13:30.636Z,95.30
2017-08-31T20:15:58.156Z,95.60
2017-08-31T20:18:25.695Z,95.70
2017-08-31T20:20:53.222Z,95.60
2017-08-31T20:23:21.530Z,95.00
2017-08-31T20:25:49.055Z,95.00
2017-08-31T20:28:17.364Z,94.70
2017-08-31T20:30:44.884Z,94.70
2017-08-31T20:33:12.429Z,94.80
2017-08-31T20:35:39.951Z,94.90
2017-08-31T20:38:07.496Z,94.70
2017-08-31T20:40:35.040Z,94.60
2017-08-31T20:43:02.599Z,94.70
2017-08-31T20:45:30.114Z,94.50
2017-08-31T20:47:57.634Z,94.80
2017-08-31T20:50:25.179Z,95.20
2017-08-31T20:52:52.708Z,95.20
2017-08-31T20:55:20.245Z,95.10
2017-08-31T20:57:47.776Z,95.20
2017-08-31T21:00:15.318Z,95.30
2017-08-31T21:02:43.604Z,94.80
2017-08-31T21:05:11.152Z,94.80
2017-08-31T21:07:41.295Z,94.70
2017-08-31T21:10:08.847Z,94.50
2017-08-31T21:12:36.376Z,94.40
2017-08-31T21:15:03.900Z,94.30
2017-08-31T21:17:31.444Z,94.70
2017-08-31T21:19:58.963Z,94.10
2017-08-31T21:22:26.511Z,94.10
2017-08-31T21:24:54.038Z,95.30
2017-08-31T21:27:21.579Z,95.30
2017-08-31T21:29:49.106Z,95.50
2017-08-31T21:32:16.667Z,96.00
2017-08-31T21:34:44.233Z,96.30
2017-08-31T21:37:11.779Z,96.40
2017-08-31T21:39:39.304Z,96.50
2017-08-31T21:42:06.849Z,96.80
2017-08-31T21:44:34.363Z,96.00
2017-08-31T21:47:01.914Z,95.60
2017-08-31T21:49:29.438Z,95.90
2017-08-31T21:51:56.963Z,96.00
2017-08-31T21:54:24.505Z,96.10
2017-08-31T21:56:52.032Z,96.00
2017-08-31T21:59:19.570Z,96.30
2017-08-31T22:01:47.861Z,96.90
2017-08-31T22:04:15.402Z,96.90
2017-08-31T22:06:42.918Z,96.70
2017-08-31T22:09:10.467Z,96.90
2017-08-31T22:11:37.980Z,96.70
2017-08-31T22:14:05.494Z,97.00
2017-08-31T22:16:33.035Z,97.50
2017-08-31T22:19:00.554Z,97.80
2017-08-31T22:21:28.093Z,97.70
2017-08-31T22:23:55.618Z,97.60
2017-08-31T22:26:23.161Z,97.30
2017-08-31T22:28:50.689Z,97.30
2017-08-31T22:31:18.248Z,97.70
2017-08-31T22:33:45.767Z,97.80
2017-08-31T22:36:13.291Z,97.80
2017-08-31T22:38:40.836Z,97.60
2017-08-31T22:41:08.360Z,97.60
2017-08-31T22:43:35.915Z,97.80
2017-08-31T22:46:03.443Z,97.80
2017-08-31T22:48:30.991Z,97.90
2017-08-31T22:50:58.507Z,97.90
2017-08-31T22:53:26.047Z,98.10
2017-08-31T22:55:53.571Z,98.50
2017-08-31T22:58:21.111Z,98.90
2017-08-31T23:00:48.635Z,99.00
2017-08-31T23:03:16.175Z,99.10
2017-08-31T23:05:43.687Z,99.10
2017-08-31T23:08:11.231Z,99.30
2017-08-31T23:10:38.760Z,99.30
2017-08-31T23:13:06.287Z,99.10
2017-08-31T23:15:33.831Z,99.00
2017-08-31T23:18:01.347Z,99.30
2017-08-31T23:20:28.895Z,99.40
2017-08-31T23:22:56.416Z,99.60
2017-08-31T23:25:23.958Z,99.50
2017-08-31T23:27:51.474Z,99.30
2017-08-31T23:30:19.018Z,99.10
2017-08-31T23:32:46.544Z,99.10
2017-08-31T23:35:14.090Z,99.10
2017-08-31T23:37:41.610Z,99.00
2017-08-31T23:40:09.156Z,99.30
2017-08-31T23:42:36.682Z,99.40
2017-08-31T23:45:04.208Z,99.40
2017-08-31T23:47:31.754Z,99.40
2017-08-31T23:49:59.280Z,99.40
2017-08-31T23:52:26.823Z,99.50
2017-08-31T23:54:54.349Z,99.50
2017-08-31T23:57:21.892Z,99.20
2017-08-31T23:59:49.408Z,99.20
